Time;durP1;ratioP1;P1;durP2;ratioP2;P2;SDS_P1;SDS_P2;PMS_P1;PMS_P2;Temp;Humidity;BMP_temperature;BMP_pressure;BME280_temperature;BME280_humidity;BME280_pressure;Samples;Min_cycle;Max_cycle;Signal;HPM_P1;HPM_P2
2023/06/05 04:00:49;;;;;;;4.20;3.42;;;12.20;99.90;;;;;;5756993;23;20755;-76
2023/06/05 04:03:16;;;;;;;2.67;2.58;;;12.20;99.90;;;;;;4988193;28;20747;-76
2023/06/05 04:05:43;;;;;;;3.20;2.95;;;12.20;99.90;;;;;;4980834;28;20576;-75
2023/06/05 04:08:11;;;;;;;3.17;2.85;;;12.10;99.90;;;;;;4991616;28;20212;-75
2023/06/05 04:10:38;;;;;;;3.25;2.83;;;12.10;99.90;;;;;;4991990;28;20226;-75
2023/06/05 04:13:05;;;;;;;3.55;2.70;;;12.10;99.90;;;;;;4990913;28;20272;-74
2023/06/05 04:15:33;;;;;;;3.45;3.05;;;12.10;99.90;;;;;;4985806;28;20215;-75
2023/06/05 04:18:01;;;;;;;3.78;3.55;;;12.10;99.90;;;;;;4992698;28;20576;-75
2023/06/05 04:20:28;;;;;;;2.95;2.75;;;12.20;99.90;;;;;;4992742;28;20712;-75
2023/06/05 04:22:55;;;;;;;2.15;2.05;;;12.40;99.90;;;;;;4986717;28;20212;-75
2023/06/05 04:25:21;;;;;;;5.47;5.00;;;12.90;99.90;;;;;;4991151;28;20291;-75
2023/06/05 04:27:51;;;;;;;3.20;3.00;;;13.40;99.90;;;;;;4992546;28;20533;-75
2023/06/05 04:30:18;;;;;;;5.90;3.87;;;14.10;99.90;;;;;;4992925;28;20561;-75
2023/06/05 04:32:52;;;;;;;3.60;3.40;;;14.60;99.90;;;;;;4992216;28;20521;-75
2023/06/05 04:35:21;;;;;;;3.13;3.03;;;15.00;99.90;;;;;;4992953;28;20470;-75
2023/06/05 04:37:48;;;;;;;5.90;2.93;;;15.40;99.90;;;;;;4985248;28;21226;-75
2023/06/05 04:40:17;;;;;;;2.50;2.40;;;15.80;99.90;;;;;;4990672;28;20510;-76
2023/06/05 04:42:45;;;;;;;2.80;2.70;;;16.20;99.90;;;;;;4973134;28;20601;-75
2023/06/05 04:45:11;;;;;;;2.97;2.80;;;16.50;99.90;;;;;;4973809;28;20468;-76
2023/06/05 04:47:38;;;;;;;2.60;2.00;;;16.80;99.90;;;;;;4973557;28;20609;-74
2023/06/05 04:50:07;;;;;;;2.23;2.23;;;17.10;99.90;;;;;;4984151;28;20473;-76
2023/06/05 04:52:36;;;;;;;2.33;2.23;;;17.10;99.90;;;;;;4993853;28;20494;-76
2023/06/05 04:55:06;;;;;;;4.93;3.00;;;17.20;99.90;;;;;;4982170;28;20460;-76
2023/06/05 04:57:33;;;;;;;2.87;2.73;;;17.60;99.90;;;;;;4979468;28;20483;-76
2023/06/05 05:00:00;;;;;;;2.00;2.00;;;17.80;99.90;;;;;;4986098;28;20516;-75
2023/06/05 05:02:26;;;;;;;4.67;2.33;;;18.00;99.90;;;;;;4983244;28;21094;-76
2023/06/05 05:04:53;;;;;;;2.53;2.33;;;18.10;99.90;;;;;;4992716;28;20541;-75
2023/06/05 05:07:22;;;;;;;2.70;2.60;;;18.60;99.90;;;;;;4993051;28;20524;-75
2023/06/05 05:09:50;;;;;;;2.13;2.13;;;18.80;99.90;;;;;;4991925;28;20865;-75
2023/06/05 05:12:17;;;;;;;2.90;2.70;;;18.80;99.90;;;;;;4998575;28;20490;-75
2023/06/05 05:14:44;;;;;;;2.70;2.60;;;18.90;99.90;;;;;;4993926;28;20963;-76
2023/06/05 05:17:11;;;;;;;3.10;2.90;;;18.80;99.90;;;;;;4984458;28;20488;-76
2023/06/05 05:19:40;;;;;;;2.67;2.37;;;19.20;99.90;;;;;;4984985;28;21080;-76
2023/06/05 05:22:07;;;;;;;2.20;2.20;;;18.70;99.90;;;;;;4990557;28;20489;-75
2023/06/05 05:24:33;;;;;;;2.23;1.93;;;18.80;99.90;;;;;;4990751;28;20532;-75
2023/06/05 05:27:01;;;;;;;2.77;2.67;;;19.10;99.90;;;;;;4990894;28;20466;-75
2023/06/05 05:29:29;;;;;;;2.27;2.17;;;19.20;99.90;;;;;;4987743;28;21030;-75
2023/06/05 05:31:55;;;;;;;3.00;2.80;;;19.20;99.90;;;;;;4984390;28;20577;-74
2023/06/05 05:34:22;;;;;;;3.10;2.90;;;18.90;99.90;;;;;;4991112;28;20462;-74
2023/06/05 05:36:49;;;;;;;2.53;2.43;;;18.90;99.90;;;;;;4990953;28;20524;-73
2023/06/05 05:39:16;;;;;;;2.50;2.40;;;19.30;99.90;;;;;;4990105;28;20550;-73
2023/06/05 05:41:43;;;;;;;1.77;1.73;;;19.40;99.90;;;;;;4991662;28;20491;-74
2023/06/05 05:44:10;;;;;;;3.30;3.10;;;19.50;99.90;;;;;;4991252;28;20475;-74
2023/06/05 05:46:37;;;;;;;2.80;2.60;;;19.20;99.90;;;;;;4991615;28;20496;-73
2023/06/05 05:49:04;;;;;;;2.67;2.57;;;18.80;99.90;;;;;;4986650;28;20470;-73
2023/06/05 05:51:31;;;;;;;2.20;2.10;;;18.80;99.90;;;;;;4988043;28;20488;-73
2023/06/05 05:53:57;;;;;;;2.77;2.67;;;18.70;99.90;;;;;;4991632;28;20471;-73
2023/06/05 05:56:24;;;;;;;2.60;2.60;;;18.40;99.90;;;;;;4991774;28;20464;-73
2023/06/05 05:58:51;;;;;;;2.07;2.00;;;18.40;99.90;;;;;;4990341;28;20486;-73
2023/06/05 06:01:19;;;;;;;1.87;1.73;;;18.80;99.90;;;;;;4988806;28;20891;-75
2023/06/05 06:03:46;;;;;;;2.63;2.57;;;19.50;99.90;;;;;;4990739;28;20473;-74
2023/06/05 06:06:12;;;;;;;1.60;1.60;;;19.70;99.90;;;;;;4981131;28;20478;-74
2023/06/05 06:08:39;;;;;;;2.20;2.10;;;19.90;99.90;;;;;;4971728;28;20470;-74
2023/06/05 06:11:07;;;;;;;2.00;2.00;;;20.50;99.90;;;;;;4987485;28;20486;-73
2023/06/05 06:13:34;;;;;;;3.53;1.97;;;20.90;99.90;;;;;;4984258;28;20474;-74
2023/06/05 06:16:01;;;;;;;1.47;1.37;;;21.10;99.90;;;;;;4991039;28;20481;-73
2023/06/05 06:18:29;;;;;;;1.77;1.67;;;21.50;99.90;;;;;;4983031;28;20469;-73
2023/06/05 06:20:55;;;;;;;2.00;2.00;;;22.00;99.90;;;;;;4989360;28;20495;-74
2023/06/05 06:23:22;;;;;;;2.03;1.93;;;21.90;99.90;;;;;;4983009;28;20470;-73
2023/06/05 06:25:51;;;;;;;1.20;1.20;;;22.00;99.90;;;;;;4979953;28;20468;-73
2023/06/05 06:28:19;;;;;;;1.57;1.57;;;21.90;99.90;;;;;;4977836;28;20481;-73
2023/06/05 06:30:46;;;;;;;1.47;1.47;;;21.50;99.90;;;;;;4986675;28;20526;-73
2023/06/05 06:33:13;;;;;;;1.80;1.60;;;21.60;99.90;;;;;;4983445;28;20974;-73
2023/06/05 06:35:41;;;;;;;1.47;1.47;;;22.20;99.90;;;;;;4987962;28;20893;-73
2023/06/05 06:38:07;;;;;;;2.00;1.90;;;22.60;99.90;;;;;;4986991;28;20504;-73
2023/06/05 06:40:35;;;;;;;1.63;1.63;;;22.80;99.90;;;;;;4989813;28;20907;-73
2023/06/05 06:43:01;;;;;;;1.93;1.90;;;22.90;99.90;;;;;;4983957;28;20464;-73
2023/06/05 06:45:28;;;;;;;1.23;1.23;;;22.80;99.90;;;;;;4987200;28;21150;-72
2023/06/05 06:47:55;;;;;;;1.80;1.70;;;22.80;99.90;;;;;;4987348;28;20496;-73
2023/06/05 06:50:21;;;;;;;1.93;1.83;;;23.00;99.90;;;;;;4988025;28;20486;-72
2023/06/05 06:52:50;;;;;;;1.30;1.30;;;22.70;99.90;;;;;;4992199;28;20469;-73
2023/06/05 06:55:17;;;;;;;1.50;1.50;;;23.10;99.90;;;;;;4992705;28;20981;-73
2023/06/05 06:57:44;;;;;;;1.23;1.23;;;23.50;99.90;;;;;;4980264;28;20475;-73
2023/06/05 07:00:12;;;;;;;1.70;1.60;;;23.80;99.90;;;;;;4979048;28;20874;-72
2023/06/05 07:02:43;;;;;;;1.70;1.70;;;24.10;99.90;;;;;;4989606;28;20606;-72
2023/06/05 07:05:10;;;;;;;2.93;1.73;;;24.00;99.90;;;;;;4988734;28;20964;-73
2023/06/05 07:07:36;;;;;;;1.30;1.30;;;24.10;99.90;;;;;;4985252;28;20471;-72
2023/06/05 07:10:05;;;;;;;1.70;1.70;;;24.50;99.90;;;;;;4985863;28;20603;-72
2023/06/05 07:12:32;;;;;;;2.10;1.33;;;24.50;99.90;;;;;;4992637;28;20484;-72
2023/06/05 07:14:59;;;;;;;3.20;1.57;;;24.30;99.90;;;;;;4982436;28;20463;-72
2023/06/05 07:17:27;;;;;;;1.23;1.23;;;24.40;99.90;;;;;;4994547;28;20467;-72
2023/06/05 07:19:54;;;;;;;1.43;1.40;;;24.30;99.90;;;;;;4991634;28;20995;-72
2023/06/05 07:22:20;;;;;;;1.77;1.67;;;24.40;99.90;;;;;;4987263;28;20995;-72
2023/06/05 07:24:48;;;;;;;1.37;1.37;;;24.60;99.90;;;;;;4990957;28;20490;-72
2023/06/05 07:27:17;;;;;;;1.10;1.10;;;24.80;99.50;;;;;;4987926;28;20543;-73
2023/06/05 07:29:43;;;;;;;1.30;1.30;;;25.30;98.70;;;;;;4984539;28;20525;-73
2023/06/05 07:32:10;;;;;;;0.97;0.97;;;25.90;98.00;;;;;;4989490;28;20560;-73
2023/06/05 07:34:37;;;;;;;1.00;1.00;;;26.40;96.40;;;;;;4993099;28;20546;-73
2023/06/05 07:37:04;;;;;;;2.70;1.53;;;26.70;95.90;;;;;;4987071;28;20589;-75
2023/06/05 07:39:31;;;;;;;1.13;1.13;;;27.00;94.40;;;;;;4990887;28;20851;-75
2023/06/05 07:41:57;;;;;;;0.83;0.83;;;27.30;93.40;;;;;;4979159;28;21269;-72
2023/06/05 07:44:25;;;;;;;1.00;1.00;;;26.70;93.30;;;;;;4993015;28;20550;-73
2023/06/05 07:46:53;;;;;;;2.00;1.90;;;26.70;93.30;;;;;;4987614;28;20621;-73
2023/06/05 07:49:19;;;;;;;0.97;0.97;;;27.00;93.20;;;;;;4989362;28;20554;-73
2023/06/05 07:51:49;;;;;;;1.17;1.13;;;26.80;92.20;;;;;;4991307;28;20891;-73
2023/06/05 07:54:16;;;;;;;1.10;1.10;;;26.50;92.20;;;;;;4989820;28;20467;-73
2023/06/05 07:56:43;;;;;;;1.10;1.10;;;26.50;92.60;;;;;;4990387;28;20494;-73
2023/06/05 07:59:14;;;;;;;1.57;1.57;;;26.10;93.20;;;;;;4992097;28;20474;-74
2023/06/05 08:01:43;;;;;;;1.00;1.00;;;26.10;93.00;;;;;;4989031;28;20535;-72
2023/06/05 08:04:10;;;;;;;1.27;1.27;;;25.80;93.10;;;;;;4986331;28;20476;-72
2023/06/05 08:06:39;;;;;;;1.03;1.03;;;25.90;93.40;;;;;;4987395;28;20466;-72
2023/06/05 08:09:09;;;;;;;1.07;1.07;;;25.90;92.80;;;;;;4991349;28;20471;-72
2023/06/05 08:11:36;;;;;;;1.20;1.20;;;26.20;91.60;;;;;;4984960;28;20544;-72
2023/06/05 08:14:05;;;;;;;1.30;1.30;;;26.50;91.70;;;;;;4987571;28;20912;-72
2023/06/05 08:16:32;;;;;;;1.60;1.60;;;26.00;92.60;;;;;;4989016;28;20489;-72
2023/06/05 08:19:00;;;;;;;1.50;1.50;;;25.50;93.60;;;;;;4988272;28;20470;-72
2023/06/05 08:21:26;;;;;;;1.23;1.23;;;25.50;93.70;;;;;;4983212;28;20518;-72
2023/06/05 08:23:53;;;;;;;1.27;1.27;;;26.10;93.00;;;;;;4983749;28;20463;-72
2023/06/05 08:26:22;;;;;;;1.47;1.47;;;26.20;92.20;;;;;;4990580;28;20847;-72
2023/06/05 08:28:50;;;;;;;1.27;1.27;;;26.20;91.10;;;;;;4982635;28;20987;-75
2023/06/05 08:31:16;;;;;;;1.00;1.00;;;26.20;91.00;;;;;;4991171;28;20545;-74
2023/06/05 08:33:44;;;;;;;0.93;0.93;;;26.30;90.10;;;;;;4989047;28;20553;-73
2023/06/05 08:36:12;;;;;;;0.83;0.83;;;26.10;89.30;;;;;;4991086;28;20463;-74
2023/06/05 08:38:39;;;;;;;1.40;1.40;;;26.00;90.40;;;;;;4988278;28;20502;-74
2023/06/05 08:41:07;;;;;;;0.70;0.70;;;25.90;89.20;;;;;;4986674;28;20491;-71
2023/06/05 08:43:37;;;;;;;1.07;1.07;;;25.90;89.00;;;;;;4989488;28;20561;-75
2023/06/05 08:46:05;;;;;;;0.60;0.60;;;25.80;90.30;;;;;;4990562;28;20470;-73
2023/06/05 08:48:35;;;;;;;0.90;0.90;;;25.70;86.30;;;;;;4984070;28;20494;-72
2023/06/05 08:51:02;;;;;;;1.00;1.00;;;25.00;89.70;;;;;;4980280;28;20510;-75
2023/06/05 08:53:35;;;;;;;1.00;1.00;;;25.20;90.20;;;;;;4987102;28;20529;-74
2023/06/05 08:56:02;;;;;;;0.83;0.83;;;25.20;90.00;;;;;;4985918;28;21039;-73
2023/06/05 08:58:30;;;;;;;0.90;0.90;;;25.20;87.30;;;;;;4990683;28;20462;-76
2023/06/05 09:00:57;;;;;;;1.00;1.00;;;25.20;87.70;;;;;;4984504;28;20609;-74
2023/06/05 09:03:23;;;;;;;0.80;0.80;;;25.30;86.20;;;;;;4986956;28;20537;-72
2023/06/05 09:05:52;;;;;;;0.97;0.93;;;25.40;87.30;;;;;;4988469;28;20541;-75
2023/06/05 09:08:28;;;;;;;0.70;0.70;;;25.20;86.30;;;;;;4984578;28;20525;-75
2023/06/05 09:11:26;;;;;;;1.10;1.10;;;25.00;85.00;;;;;;4988045;28;20490;-74
2023/06/05 09:13:54;;;;;;;0.70;0.70;;;25.00;84.50;;;;;;4985668;28;20505;-74
2023/06/05 09:16:22;;;;;;;1.03;1.03;;;24.70;82.80;;;;;;4988888;28;20460;-73
2023/06/05 09:18:56;;;;;;;1.07;1.07;;;24.50;86.80;;;;;;4979207;28;20553;-75
2023/06/05 09:21:29;;;;;;;1.20;1.17;;;24.40;89.20;;;;;;4985985;28;20970;-74
2023/06/05 09:24:11;;;;;;;0.67;0.67;;;24.30;88.40;;;;;;4982902;28;20609;-75
2023/06/05 09:26:49;;;;;;;1.10;1.10;;;24.10;88.00;;;;;;4985785;28;21093;-75
2023/06/05 09:29:21;;;;;;;0.67;0.67;;;23.90;87.10;;;;;;4984795;28;20585;-77
2023/06/05 09:31:49;;;;;;;1.00;1.00;;;23.80;85.80;;;;;;4981657;28;20495;-73
2023/06/05 09:34:22;;;;;;;0.80;0.80;;;23.70;85.10;;;;;;4986785;28;20528;-75
2023/06/05 09:36:48;;;;;;;1.03;1.00;;;23.70;85.50;;;;;;4987860;28;20470;-72
2023/06/05 09:39:15;;;;;;;1.10;1.10;;;23.50;85.80;;;;;;4985426;28;20473;-75
2023/06/05 09:41:44;;;;;;;0.80;0.80;;;23.40;87.30;;;;;;4989381;28;20525;-73
2023/06/05 09:44:12;;;;;;;1.43;1.43;;;23.40;87.50;;;;;;4980000;28;20476;-74
2023/06/05 09:46:55;;;;;;;0.50;0.50;;;23.40;87.00;;;;;;4990004;28;20474;-74
2023/06/05 09:49:24;;;;;;;0.90;0.90;;;23.50;86.60;;;;;;4988589;28;20483;-73
2023/06/05 09:51:51;;;;;;;0.63;0.63;;;23.30;87.60;;;;;;4994591;28;20501;-73
2023/06/05 09:54:20;;;;;;;0.90;0.90;;;23.20;87.50;;;;;;4990236;28;20474;-74
2023/06/05 09:56:49;;;;;;;0.87;0.87;;;23.30;86.50;;;;;;4982104;28;20862;-73
2023/06/05 09:59:24;;;;;;;1.13;0.70;;;23.40;87.90;;;;;;4981015;28;20488;-73
2023/06/05 10:01:52;;;;;;;1.50;1.40;;;23.40;85.40;;;;;;4988148;28;20549;-74
2023/06/05 10:04:22;;;;;;;1.37;1.37;;;23.50;86.10;;;;;;4985542;28;20471;-74
2023/06/05 10:06:50;;;;;;;0.83;0.83;;;23.70;85.90;;;;;;4987776;28;20474;-75
2023/06/05 10:09:18;;;;;;;1.10;1.10;;;23.70;85.60;;;;;;4986615;28;20532;-75
2023/06/05 10:11:48;;;;;;;0.80;0.80;;;23.80;86.20;;;;;;4986154;28;21053;-75
2023/06/05 10:14:16;;;;;;;1.00;1.00;;;23.80;84.80;;;;;;4987727;28;20948;-75
2023/06/05 10:16:44;;;;;;;0.90;0.90;;;23.90;85.80;;;;;;4986526;28;20474;-75
2023/06/05 10:19:12;;;;;;;0.80;0.80;;;23.80;84.70;;;;;;4989042;28;20477;-74
2023/06/05 10:21:39;;;;;;;0.73;0.73;;;23.80;86.60;;;;;;4988567;28;20516;-74
2023/06/05 10:24:09;;;;;;;0.80;0.80;;;23.70;86.30;;;;;;4989860;28;20474;-74
2023/06/05 10:27:14;;;;;;;1.23;1.07;;;23.70;87.30;;;;;;4985559;28;20501;-74
2023/06/05 10:30:11;;;;;;;1.10;1.10;;;23.80;87.30;;;;;;4988152;28;20824;-73
2023/06/05 10:32:54;;;;;;;0.73;0.73;;;23.90;84.90;;;;;;4980737;28;20551;-73
2023/06/05 10:35:35;;;;;;;1.27;1.23;;;23.90;84.30;;;;;;4983594;28;20469;-73
2023/06/05 10:38:16;;;;;;;0.97;0.97;;;23.90;83.60;;;;;;4986513;28;21087;-73
2023/06/05 10:40:43;;;;;;;0.80;0.80;;;23.70;84.10;;;;;;4986030;28;20523;-73
2023/06/05 10:43:30;;;;;;;0.90;0.90;;;23.60;84.00;;;;;;4985966;28;20520;-72
2023/06/05 10:45:58;;;;;;;0.83;0.83;;;23.40;84.00;;;;;;4984853;28;20950;-73
2023/06/05 10:48:58;;;;;;;0.70;0.70;;;23.50;83.70;;;;;;4991143;28;20471;-73
2023/06/05 10:51:39;;;;;;;0.57;0.57;;;23.60;82.70;;;;;;4986059;28;20489;-73
2023/06/05 10:54:06;;;;;;;0.67;0.67;;;23.70;81.10;;;;;;4989557;28;20466;-73
2023/06/05 10:57:01;;;;;;;1.30;1.30;;;23.80;81.90;;;;;;4982813;28;20466;-73
2023/06/05 10:59:29;;;;;;;2.20;1.27;;;24.00;80.80;;;;;;4992039;28;20805;-73
2023/06/05 11:02:24;;;;;;;0.63;0.63;;;24.00;77.20;;;;;;4992715;28;20841;-73
2023/06/05 11:05:08;;;;;;;1.00;1.00;;;23.90;78.70;;;;;;4977980;28;20478;-73
2023/06/05 11:07:37;;;;;;;0.77;0.77;;;24.10;78.80;;;;;;4985392;28;20843;-73
2023/06/05 11:10:15;;;;;;;0.90;0.90;;;24.30;79.10;;;;;;4990295;28;20470;-73
2023/06/05 11:13:01;;;;;;;0.83;0.83;;;24.30;79.10;;;;;;4985249;28;20525;-73
2023/06/05 11:15:43;;;;;;;0.83;0.83;;;24.30;79.90;;;;;;4983095;28;20479;-73
2023/06/05 11:18:35;;;;;;;0.83;0.83;;;24.30;79.80;;;;;;4990645;28;20505;-73
2023/06/05 11:21:02;;;;;;;0.70;0.70;;;24.40;79.10;;;;;;4976034;28;20854;-73
2023/06/05 11:23:30;;;;;;;1.03;1.03;;;24.50;78.80;;;;;;4988179;28;20478;-72
2023/06/05 11:25:59;;;;;;;0.60;0.60;;;24.60;77.90;;;;;;4987991;28;20564;-74
2023/06/05 11:28:42;;;;;;;1.77;1.03;;;24.60;76.80;;;;;;4993578;28;20958;-72
2023/06/05 11:31:09;;;;;;;0.77;0.77;;;24.60;77.00;;;;;;4988266;28;20508;-73
2023/06/05 11:33:36;;;;;;;0.83;0.83;;;24.80;77.60;;;;;;4993076;28;20976;-74
2023/06/05 11:36:06;;;;;;;0.70;0.70;;;24.80;75.90;;;;;;4990329;28;20490;-73
2023/06/05 11:38:35;;;;;;;0.50;0.50;;;24.70;75.90;;;;;;4992622;28;20984;-74
2023/06/05 11:41:07;;;;;;;1.57;0.57;;;24.70;78.20;;;;;;4980232;28;20490;-73
2023/06/05 11:43:41;;;;;;;0.60;0.60;;;24.60;76.90;;;;;;4986265;28;20549;-73
2023/06/05 11:46:08;;;;;;;0.90;0.90;;;24.50;76.60;;;;;;4983320;28;20582;-73
2023/06/05 11:48:35;;;;;;;0.70;0.70;;;24.50;75.50;;;;;;4988244;28;20469;-74
2023/06/05 11:51:05;;;;;;;0.50;0.50;;;24.60;75.50;;;;;;4985781;28;20567;-72
2023/06/05 11:53:33;;;;;;;1.00;0.83;;;24.70;74.80;;;;;;4988782;28;20540;-73
2023/06/05 11:56:07;;;;;;;0.87;0.87;;;24.90;75.30;;;;;;4986959;28;20616;-72
2023/06/05 11:58:36;;;;;;;1.80;1.10;;;25.20;73.40;;;;;;4987128;28;20977;-72
2023/06/05 12:01:12;;;;;;;0.67;0.67;;;25.30;73.60;;;;;;4989132;28;20596;-74
2023/06/05 12:03:39;;;;;;;1.20;1.13;;;25.40;72.50;;;;;;4991602;28;20480;-74
2023/06/05 12:06:07;;;;;;;0.70;0.70;;;25.60;73.50;;;;;;4988986;28;20584;-74
2023/06/05 12:08:35;;;;;;;0.63;0.63;;;25.70;71.40;;;;;;4987933;28;20474;-74
2023/06/05 12:11:04;;;;;;;1.10;1.10;;;25.70;70.60;;;;;;4992076;28;21031;-75
2023/06/05 12:13:47;;;;;;;0.80;0.80;;;25.80;72.50;;;;;;4992046;28;20447;-75
2023/06/05 12:16:14;;;;;;;1.00;1.00;;;25.70;73.60;;;;;;4990364;28;20562;-76
2023/06/05 12:18:41;;;;;;;0.80;0.80;;;25.70;72.30;;;;;;4991223;28;20473;-74
2023/06/05 12:21:20;;;;;;;1.23;0.77;;;25.60;71.30;;;;;;4991817;28;20544;-75
2023/06/05 12:23:47;;;;;;;1.07;1.07;;;25.60;73.10;;;;;;4989972;28;20467;-75
2023/06/05 12:26:16;;;;;;;0.73;0.73;;;25.50;73.60;;;;;;4989047;28;20529;-74
2023/06/05 12:28:44;;;;;;;1.17;1.17;;;25.10;72.10;;;;;;4988178;28;20473;-75
2023/06/05 12:31:11;;;;;;;0.80;0.80;;;25.10;71.70;;;;;;4990785;28;20595;-75
2023/06/05 12:33:47;;;;;;;0.70;0.70;;;25.40;72.60;;;;;;4987818;28;20551;-76
2023/06/05 12:36:14;;;;;;;1.00;1.00;;;25.40;69.20;;;;;;4976043;28;20965;-76
2023/06/05 12:38:42;;;;;;;0.90;0.73;;;25.30;71.80;;;;;;4988013;28;20623;-76
2023/06/05 12:41:09;;;;;;;0.90;0.90;;;25.10;71.20;;;;;;4990042;28;20479;-76
2023/06/05 12:43:38;;;;;;;0.83;0.83;;;25.00;70.80;;;;;;4979555;28;20491;-76
2023/06/05 12:46:06;;;;;;;0.57;0.57;;;24.80;71.80;;;;;;4987038;28;20464;-76
2023/06/05 12:48:33;;;;;;;0.50;0.50;;;24.60;72.50;;;;;;4985497;28;20570;-76
2023/06/05 12:51:00;;;;;;;0.73;0.73;;;24.50;75.90;;;;;;4992135;28;20513;-76
2023/06/05 12:53:27;;;;;;;1.00;1.00;;;24.90;73.50;;;;;;4990675;28;20543;-75
2023/06/05 12:55:53;;;;;;;0.80;0.80;;;25.00;73.30;;;;;;4988530;28;20475;-76
2023/06/05 12:58:21;;;;;;;0.60;0.60;;;25.00;74.20;;;;;;4990805;28;20465;-76
2023/06/05 13:00:50;;;;;;;2.20;1.40;;;25.10;72.30;;;;;;4991749;28;20514;-76
2023/06/05 13:03:16;;;;;;;0.80;0.80;;;25.10;73.10;;;;;;4991978;28;20495;-76
2023/06/05 13:05:43;;;;;;;0.77;0.77;;;25.20;73.60;;;;;;4991465;28;20479;-76
2023/06/05 13:08:10;;;;;;;0.80;0.80;;;25.30;72.90;;;;;;4989624;28;20490;-76
2023/06/05 13:10:36;;;;;;;0.83;0.83;;;25.10;72.60;;;;;;4993006;28;20488;-76
2023/06/05 13:13:03;;;;;;;1.20;1.07;;;25.00;71.20;;;;;;4991537;28;20459;-76
2023/06/05 13:15:31;;;;;;;1.03;1.03;;;25.10;71.00;;;;;;4991199;28;20471;-75
2023/06/05 13:17:59;;;;;;;1.10;1.10;;;25.20;72.10;;;;;;4990971;28;20478;-76
2023/06/05 13:20:27;;;;;;;0.90;0.90;;;25.30;70.90;;;;;;4990246;28;20567;-75
2023/06/05 13:22:53;;;;;;;0.93;0.70;;;25.30;70.60;;;;;;4991201;28;20480;-76
2023/06/05 13:25:20;;;;;;;0.97;0.97;;;25.40;72.00;;;;;;4987256;28;20512;-75
2023/06/05 13:27:47;;;;;;;1.27;1.23;;;25.60;71.50;;;;;;4981933;28;21073;-73
2023/06/05 13:30:13;;;;;;;0.87;0.87;;;25.60;70.80;;;;;;4990019;28;20473;-73
2023/06/05 13:32:41;;;;;;;0.73;0.73;;;25.60;69.50;;;;;;4986887;28;20495;-73
2023/06/05 13:35:10;;;;;;;1.33;1.23;;;25.50;69.20;;;;;;4987599;28;20472;-74
2023/06/05 13:37:37;;;;;;;1.23;1.23;;;25.30;68.60;;;;;;4987739;28;20551;-75
2023/06/05 13:40:06;;;;;;;1.17;1.13;;;25.50;71.30;;;;;;4992911;28;20471;-75
2023/06/05 13:42:33;;;;;;;0.80;0.80;;;25.60;71.10;;;;;;4992193;28;20910;-74
2023/06/05 13:45:00;;;;;;;0.80;0.80;;;25.60;69.50;;;;;;5000433;28;20465;-74
2023/06/05 13:47:26;;;;;;;0.60;0.60;;;25.80;69.30;;;;;;4998334;28;20467;-74
2023/06/05 13:49:54;;;;;;;0.90;0.90;;;25.80;68.40;;;;;;4989855;28;20477;-74
2023/06/05 13:52:22;;;;;;;1.13;1.13;;;26.00;67.90;;;;;;5001059;28;20516;-75
2023/06/05 13:54:48;;;;;;;1.03;1.03;;;26.00;68.80;;;;;;4990485;28;21073;-73
2023/06/05 13:57:16;;;;;;;1.00;1.00;;;26.00;68.60;;;;;;4992024;28;20464;-74
2023/06/05 13:59:43;;;;;;;1.17;0.80;;;26.10;67.70;;;;;;4994195;28;20458;-74
2023/06/05 14:02:11;;;;;;;1.03;1.03;;;26.20;67.40;;;;;;4979537;28;20504;-74
2023/06/05 14:04:37;;;;;;;1.20;1.20;;;26.00;67.50;;;;;;4990574;28;20473;-74
2023/06/05 14:07:05;;;;;;;0.73;0.73;;;26.10;67.00;;;;;;4999586;28;20529;-74
2023/06/05 14:09:33;;;;;;;0.77;0.77;;;26.20;67.50;;;;;;4998465;28;20493;-74
2023/06/05 14:12:00;;;;;;;0.70;0.70;;;26.40;67.80;;;;;;4995991;28;20548;-74
2023/06/05 14:14:28;;;;;;;1.00;1.00;;;26.60;67.50;;;;;;4996904;28;20477;-75
2023/06/05 14:16:54;;;;;;;0.80;0.80;;;26.60;66.50;;;;;;4998755;28;20542;-75
2023/06/05 14:19:21;;;;;;;0.70;0.70;;;26.60;67.60;;;;;;4980619;28;21775;-74
2023/06/05 14:21:49;;;;;;;1.00;1.00;;;26.20;65.20;;;;;;4993958;28;20986;-74
2023/06/05 14:24:16;;;;;;;0.70;0.70;;;26.10;67.40;;;;;;4991831;28;20500;-74
2023/06/05 14:26:44;;;;;;;0.60;0.60;;;26.10;66.20;;;;;;4995000;28;20461;-74
2023/06/05 14:29:11;;;;;;;1.17;1.17;;;26.00;66.60;;;;;;4991190;28;20978;-74
2023/06/05 14:31:37;;;;;;;0.87;0.87;;;26.00;67.10;;;;;;4986826;28;21014;-74
2023/06/05 14:34:04;;;;;;;1.10;1.10;;;26.00;67.10;;;;;;4990889;28;20466;-73
2023/06/05 14:36:31;;;;;;;0.63;0.63;;;25.60;66.20;;;;;;4995868;28;20532;-73
2023/06/05 14:38:57;;;;;;;0.90;0.90;;;25.50;67.10;;;;;;4987841;28;20521;-73
2023/06/05 14:41:24;;;;;;;1.30;1.30;;;25.30;67.90;;;;;;4993674;28;20555;-76
2023/06/05 14:43:52;;;;;;;1.07;1.00;;;25.20;67.60;;;;;;4994986;28;20498;-76
2023/06/05 14:46:19;;;;;;;1.20;1.20;;;25.00;67.40;;;;;;4993836;28;20462;-75
2023/06/05 14:48:46;;;;;;;0.60;0.60;;;25.10;67.40;;;;;;4984446;28;20473;-75
2023/06/05 14:51:12;;;;;;;0.93;0.93;;;25.20;68.00;;;;;;4990431;28;20497;-75
2023/06/05 14:53:39;;;;;;;1.00;1.00;;;25.10;68.10;;;;;;4992717;28;20864;-75
2023/06/05 14:56:06;;;;;;;0.60;0.60;;;25.00;67.50;;;;;;4992915;28;20546;-74
2023/06/05 14:58:33;;;;;;;1.53;1.03;;;24.80;67.50;;;;;;4991914;28;20478;-74
2023/06/05 15:01:01;;;;;;;0.80;0.80;;;24.70;67.90;;;;;;4989675;28;20500;-74
2023/06/05 15:03:27;;;;;;;0.80;0.80;;;24.70;69.70;;;;;;4986657;28;20705;-74
2023/06/05 15:05:54;;;;;;;1.07;0.80;;;24.60;69.00;;;;;;4992321;28;20464;-75
2023/06/05 15:08:21;;;;;;;1.43;1.43;;;24.50;69.10;;;;;;4992069;28;20471;-75
2023/06/05 15:10:48;;;;;;;1.00;1.00;;;24.50;68.30;;;;;;4991097;28;20513;-76
2023/06/05 15:13:16;;;;;;;1.17;1.17;;;24.60;68.60;;;;;;4992943;28;20774;-75
2023/06/05 15:15:42;;;;;;;1.00;1.00;;;24.80;68.80;;;;;;4993485;28;20474;-75
2023/06/05 15:18:10;;;;;;;0.80;0.80;;;25.10;69.00;;;;;;4993533;28;20468;-75
2023/06/05 15:20:37;;;;;;;0.87;0.87;;;25.30;67.50;;;;;;4992467;28;20549;-75
2023/06/05 15:23:05;;;;;;;0.67;0.67;;;25.40;68.50;;;;;;4992844;28;20902;-75
2023/06/05 15:25:33;;;;;;;0.90;0.90;;;25.60;66.50;;;;;;4994116;28;20673;-75
2023/06/05 15:27:59;;;;;;;1.90;1.10;;;25.70;67.00;;;;;;4993791;28;20482;-75
2023/06/05 15:30:26;;;;;;;0.83;0.83;;;25.80;64.70;;;;;;4991816;28;20472;-75
2023/06/05 15:32:53;;;;;;;0.80;0.80;;;25.70;65.50;;;;;;4993572;28;20459;-75
2023/06/05 15:35:21;;;;;;;0.80;0.80;;;25.70;65.50;;;;;;4994202;28;20496;-75
2023/06/05 15:37:47;;;;;;;1.10;1.10;;;25.60;66.10;;;;;;4986145;28;20534;-75
2023/06/05 15:40:14;;;;;;;1.00;1.00;;;25.50;65.60;;;;;;4990407;28;20476;-75
2023/06/05 15:42:44;;;;;;;0.97;0.97;;;25.60;65.60;;;;;;4993992;28;20488;-75
2023/06/05 15:45:12;;;;;;;1.23;1.23;;;25.80;64.70;;;;;;4995674;28;20489;-76
2023/06/05 15:47:41;;;;;;;1.33;1.33;;;25.90;64.20;;;;;;4988029;28;20504;-75
2023/06/05 15:50:09;;;;;;;0.93;0.93;;;25.90;64.20;;;;;;4989454;28;20471;-75
2023/06/05 15:52:39;;;;;;;0.93;0.93;;;25.80;63.50;;;;;;4985129;28;21000;-75
2023/06/05 15:55:06;;;;;;;0.63;0.63;;;26.10;64.30;;;;;;4993693;28;20483;-75
2023/06/05 15:57:33;;;;;;;1.03;1.03;;;26.10;63.40;;;;;;4992323;28;20887;-75
2023/06/05 16:00:00;;;;;;;1.77;1.77;;;26.10;64.00;;;;;;4992773;28;21014;-75
2023/06/05 16:02:26;;;;;;;1.17;1.17;;;26.20;62.60;;;;;;4992758;28;20488;-75
2023/06/05 16:04:53;;;;;;;1.03;1.03;;;26.30;62.70;;;;;;4993659;28;20492;-75
2023/06/05 16:07:21;;;;;;;1.10;1.10;;;26.40;63.50;;;;;;4990456;28;20527;-75
2023/06/05 16:09:50;;;;;;;1.60;1.13;;;26.50;62.70;;;;;;4987461;28;20469;-75
2023/06/05 16:12:17;;;;;;;0.80;0.80;;;26.50;61.20;;;;;;4982370;28;20955;-75
2023/06/05 16:14:44;;;;;;;1.20;1.20;;;26.50;61.80;;;;;;4991027;28;21001;-76
2023/06/05 16:17:11;;;;;;;1.20;1.20;;;26.40;61.10;;;;;;4981127;28;20501;-75
2023/06/05 16:19:37;;;;;;;1.03;1.03;;;26.50;62.00;;;;;;4983762;28;20467;-75
2023/06/05 16:22:04;;;;;;;0.93;0.93;;;26.50;60.10;;;;;;4986702;28;20567;-75
2023/06/05 16:24:33;;;;;;;0.83;0.83;;;26.50;60.20;;;;;;4984513;28;20491;-75
2023/06/05 16:27:01;;;;;;;0.77;0.77;;;26.40;60.60;;;;;;4988467;28;20461;-76
2023/06/05 16:29:28;;;;;;;0.67;0.67;;;26.40;59.90;;;;;;4986478;28;20520;-75
2023/06/05 16:31:54;;;;;;;1.00;1.00;;;26.40;60.60;;;;;;4985489;28;20491;-75
2023/06/05 16:34:22;;;;;;;0.90;0.90;;;26.30;60.80;;;;;;4976105;28;20545;-75
2023/06/05 16:36:49;;;;;;;0.87;0.87;;;26.20;61.40;;;;;;4987342;28;20567;-75
2023/06/05 16:39:17;;;;;;;1.27;1.27;;;26.00;61.50;;;;;;4986678;28;20472;-76
2023/06/05 16:41:43;;;;;;;1.07;1.07;;;25.80;63.10;;;;;;4987245;28;20954;-75
2023/06/05 16:44:12;;;;;;;0.73;0.73;;;25.90;63.30;;;;;;4991800;28;20483;-75
2023/06/05 16:46:39;;;;;;;0.50;0.50;;;25.90;62.60;;;;;;4992129;28;20467;-75
2023/06/05 16:49:06;;;;;;;1.00;1.00;;;25.90;63.00;;;;;;4985614;28;21017;-75
2023/06/05 16:51:33;;;;;;;1.20;1.20;;;25.90;63.10;;;;;;4987282;28;20492;-75
2023/06/05 16:54:00;;;;;;;1.00;1.00;;;26.00;63.70;;;;;;4989791;28;20471;-76
2023/06/05 16:56:27;;;;;;;1.33;1.33;;;25.90;64.00;;;;;;4987211;28;20480;-73